Terminal Aerodrome Forecast
Issued by NWS

Home | Current Version | Previous Version | Text Only | Print | Product List | Glossary On
Versions: 1 2 3 4 5 6 7 8 9 10 11 12 13 14 15
561
FTUS45 KABQ 221126
TAFTCC
TAF
KTCC 221126Z 2212/2312 26008KT P6SM SKC
     FM221800 22010G18KT P6SM FEW250
     FM230100 24008KT P6SM FEW250=

USA.gov is the U.S. government's official web portal to all federal, state and local government web resources and services.